Terminal Aerodrome Forecast
Issued by NWS

Home | Current Version | Previous Version | Text Only | Print | Product List | Glossary On
Versions: 1 2 3 4 5 6 7 8 9 10 11 12 13 14
000
FTUS42 KMLB 282320
TAFSUA
TAF
KSUA 282320Z 2900/2924 06014G19KT P6SM SCT035
     FM290200 08010KT P6SM SCT030
     FM291200 08013G19KT P6SM VCSH SCT025 BKN035=

USA.gov is the U.S. government's official web portal to all federal, state and local government web resources and services.